DOF/210920 0900Z

 METAR AND TAF INFORMATION
METAR FOR LPOV
ADDS - METARS form results

(0900 UTC 20 September 2021)
Data provider http://aviationweather.gov/metar/data/
 
Forecast for: AMD
Text: TAF AMD LPOV 200603Z 2006/2106 01010KT CAVOK
Forecast period: 0600 UTC 20 September 2021 to 0600 UTC 21 September 2021
Forecast type: FROM: standard forecast or significant change
Winds: from the N (10 degrees) at 12 MPH (10 knots; 5.1 m/s)
Visibility: 6 or more miles (10+ km)
Ceiling: unknown
Clouds: missing
Weather: NSW  (no significant weather)

 AIRPORT MAP

 RUNWAY INFORMATION
Runway 18 Runway length 8005 ft Runway width 148 ft
Runway elevation 44 ft Runway displaced threshold 0 ft Runway heading 176
Runway 36 Runway length 8005 ft Runway width 148 ft
Runway elevation 56 ft Runway displaced threshold 0 ft Runway heading 356

 AIRPORT FREQUENCIES
Type APP Name APP Frequency 118.6 MHZ
Type TWR Name TWR Frequency 122.1 MHZ

 AIRPORT NEAR NAVIGATION AIDS
Type TACAN Name Ovar Frequency 110600 KHZ







No Copyright © 2021 Mickey Virtual Airlines - You can copy whatever you want, but only one can be the original.

Powered by Virtual Airlines Manager